sensor_id;sensor_type;location;lat;lon;timestamp;pressure;altitude;pressure_sealevel;temperature;humidity
67029;BME280;53934;52.142;11.738;2022-12-10T00:01:42;100361.19;;;2.69;75.51
67029;BME280;53934;52.142;11.738;2022-12-10T00:04:09;100357.75;;;2.67;75.81
67029;BME280;53934;52.142;11.738;2022-12-10T00:06:37;100353.50;;;2.66;75.91
67029;BME280;53934;52.142;11.738;2022-12-10T00:09:06;100368.84;;;2.73;75.24
67029;BME280;53934;52.142;11.738;2022-12-10T00:11:34;100360.75;;;2.52;76.10
67029;BME280;53934;52.142;11.738;2022-12-10T00:14:00;100366.75;;;2.87;79.18
67029;BME280;53934;52.142;11.738;2022-12-10T00:16:28;100366.38;;;2.67;77.47
67029;BME280;53934;52.142;11.738;2022-12-10T00:18:56;100364.44;;;2.77;76.07
67029;BME280;53934;52.142;11.738;2022-12-10T00:21:24;100359.09;;;2.81;75.74
67029;BME280;53934;52.142;11.738;2022-12-10T00:23:52;100368.03;;;2.70;75.87
67029;BME280;53934;52.142;11.738;2022-12-10T00:26:21;100368.03;;;2.70;75.75
67029;BME280;53934;52.142;11.738;2022-12-10T00:28:49;100378.75;;;2.56;75.57
67029;BME280;53934;52.142;11.738;2022-12-10T00:31:18;100380.06;;;2.38;76.84
67029;BME280;53934;52.142;11.738;2022-12-10T00:33:45;100370.38;;;2.47;76.38
67029;BME280;53934;52.142;11.738;2022-12-10T00:36:15;100369.81;;;2.69;76.06
67029;BME280;53934;52.142;11.738;2022-12-10T00:38:43;100374.84;;;2.74;75.92
67029;BME280;53934;52.142;11.738;2022-12-10T00:41:11;100374.72;;;2.78;75.59
67029;BME280;53934;52.142;11.738;2022-12-10T00:43:38;100372.13;;;2.78;75.05
67029;BME280;53934;52.142;11.738;2022-12-10T00:46:05;100368.66;;;2.79;74.87
67029;BME280;53934;52.142;11.738;2022-12-10T00:48:32;100366.09;;;2.78;74.91
67029;BME280;53934;52.142;11.738;2022-12-10T00:51:00;100367.94;;;2.74;74.89
67029;BME280;53934;52.142;11.738;2022-12-10T00:53:28;100368.78;;;2.75;74.62
67029;BME280;53934;52.142;11.738;2022-12-10T00:55:56;100367.06;;;2.74;74.54
67029;BME280;53934;52.142;11.738;2022-12-10T00:58:27;100368.09;;;2.68;74.93
67029;BME280;53934;52.142;11.738;2022-12-10T01:00:53;100369.84;;;2.66;75.08
67029;BME280;53934;52.142;11.738;2022-12-10T01:03:20;100369.81;;;2.69;75.15
67029;BME280;53934;52.142;11.738;2022-12-10T01:05:46;100378.06;;;2.48;75.98
67029;BME280;53934;52.142;11.738;2022-12-10T01:08:13;100379.94;;;2.43;75.75
67029;BME280;53934;52.142;11.738;2022-12-10T01:10:39;100381.25;;;2.59;75.42
67029;BME280;53934;52.142;11.738;2022-12-10T01:13:06;100376.78;;;2.66;75.05
67029;BME280;53934;52.142;11.738;2022-12-10T01:15:38;100374.06;;;2.70;75.00
67029;BME280;53934;52.142;11.738;2022-12-10T01:18:05;100381.78;;;2.73;75.01
67029;BME280;53934;52.142;11.738;2022-12-10T01:20:34;100375.03;;;2.66;74.76
67029;BME280;53934;52.142;11.738;2022-12-10T01:23:01;100376.66;;;2.70;74.80
67029;BME280;53934;52.142;11.738;2022-12-10T01:25:27;100375.69;;;2.74;75.00
67029;BME280;53934;52.142;11.738;2022-12-10T01:27:54;100380.28;;;2.63;75.17
67029;BME280;53934;52.142;11.738;2022-12-10T01:30:20;100378.91;;;2.50;75.65
67029;BME280;53934;52.142;11.738;2022-12-10T01:32:48;100381.56;;;2.47;76.07
67029;BME280;53934;52.142;11.738;2022-12-10T01:35:15;100393.28;;;2.62;75.78
67029;BME280;53934;52.142;11.738;2022-12-10T01:37:41;100387.34;;;2.58;76.06
67029;BME280;53934;52.142;11.738;2022-12-10T01:40:09;100394.94;;;2.64;75.62
67029;BME280;53934;52.142;11.738;2022-12-10T01:42:35;100394.84;;;2.69;75.45
67029;BME280;53934;52.142;11.738;2022-12-10T01:45:10;100386.88;;;2.76;75.07
67029;BME280;53934;52.142;11.738;2022-12-10T01:47:37;100394.56;;;2.79;74.86
67029;BME280;53934;52.142;11.738;2022-12-10T01:50:07;100386.22;;;2.68;75.36
67029;BME280;53934;52.142;11.738;2022-12-10T01:52:35;100393.09;;;2.69;75.51
67029;BME280;53934;52.142;11.738;2022-12-10T01:55:07;100391.31;;;2.71;75.12
67029;BME280;53934;52.142;11.738;2022-12-10T01:57:35;100381.69;;;2.42;76.41
67029;BME280;53934;52.142;11.738;2022-12-10T02:00:05;100382.34;;;2.51;76.13
67029;BME280;53934;52.142;11.738;2022-12-10T02:02:38;100390.81;;;2.57;75.99
67029;BME280;53934;52.142;11.738;2022-12-10T02:05:17;100379.56;;;2.58;76.08
67029;BME280;53934;52.142;11.738;2022-12-10T02:07:54;100387.88;;;2.71;76.06
67029;BME280;53934;52.142;11.738;2022-12-10T02:10:30;100380.94;;;2.71;75.97
67029;BME280;53934;52.142;11.738;2022-12-10T02:13:06;100381.22;;;2.61;76.51
67029;BME280;53934;52.142;11.738;2022-12-10T02:15:36;100386.41;;;2.61;76.75
67029;BME280;53934;52.142;11.738;2022-12-10T02:18:08;100381.19;;;2.62;76.40
67029;BME280;53934;52.142;11.738;2022-12-10T02:20:39;100383.44;;;2.40;77.11
67029;BME280;53934;52.142;11.738;2022-12-10T02:23:10;100377.25;;;2.11;78.41
67029;BME280;53934;52.142;11.738;2022-12-10T02:25:40;100379.84;;;2.11;78.48
67029;BME280;53934;52.142;11.738;2022-12-10T02:28:13;100382.25;;;2.18;78.69
67029;BME280;53934;52.142;11.738;2022-12-10T02:30:45;100387.25;;;2.26;78.66
67029;BME280;53934;52.142;11.738;2022-12-10T02:33:16;100381.63;;;2.44;77.92
67029;BME280;53934;52.142;11.738;2022-12-10T02:35:46;100389.91;;;2.23;78.54
67029;BME280;53934;52.142;11.738;2022-12-10T02:38:18;100393.75;;;2.07;78.88
67029;BME280;53934;52.142;11.738;2022-12-10T02:40:49;100390.31;;;2.06;79.01
67029;BME280;53934;52.142;11.738;2022-12-10T02:43:20;100398.38;;;2.29;78.78
67029;BME280;53934;52.142;11.738;2022-12-10T02:45:50;100391.63;;;2.24;78.82
67029;BME280;53934;52.142;11.738;2022-12-10T02:48:18;100393.66;;;2.47;77.94
67029;BME280;53934;52.142;11.738;2022-12-10T02:50:45;100396.56;;;2.33;77.94
67029;BME280;53934;52.142;11.738;2022-12-10T02:53:11;100393.97;;;1.96;79.69
67029;BME280;53934;52.142;11.738;2022-12-10T02:55:55;100393.94;;;1.98;79.68
67029;BME280;53934;52.142;11.738;2022-12-10T02:58:28;100385.84;;;2.13;79.46
67029;BME280;53934;52.142;11.738;2022-12-10T03:01:05;100394.09;;;2.28;78.71
67029;BME280;53934;52.142;11.738;2022-12-10T03:03:39;100390.06;;;2.17;78.75
67029;BME280;53934;52.142;11.738;2022-12-10T03:06:15;100393.56;;;2.14;79.00
67029;BME280;53934;52.142;11.738;2022-12-10T03:08:49;100383.81;;;1.88;79.94
67029;BME280;53934;52.142;11.738;2022-12-10T03:11:18;100383.44;;;1.65;80.97
67029;BME280;53934;52.142;11.738;2022-12-10T03:13:51;100383.63;;;1.56;81.29
67029;BME280;53934;52.142;11.738;2022-12-10T03:16:22;100382.44;;;1.31;81.92
67029;BME280;53934;52.142;11.738;2022-12-10T03:18:55;100389.00;;;1.47;81.62
67029;BME280;53934;52.142;11.738;2022-12-10T03:21:24;100396.63;;;1.53;81.60
67029;BME280;53934;52.142;11.738;2022-12-10T03:23:53;100391.13;;;1.27;82.01
67029;BME280;53934;52.142;11.738;2022-12-10T03:26:21;100393.41;;;1.42;82.02
67029;BME280;53934;52.142;11.738;2022-12-10T03:28:50;100396.25;;;1.28;82.07
67029;BME280;53934;52.142;11.738;2022-12-10T03:31:19;100401.75;;;1.55;81.80
67029;BME280;53934;52.142;11.738;2022-12-10T03:33:48;100391.28;;;1.61;81.04
67029;BME280;53934;52.142;11.738;2022-12-10T03:36:17;100393.41;;;1.82;80.30
67029;BME280;53934;52.142;11.738;2022-12-10T03:38:45;100392.91;;;2.05;79.76
67029;BME280;53934;52.142;11.738;2022-12-10T03:41:11;100400.03;;;1.95;79.47
67029;BME280;53934;52.142;11.738;2022-12-10T03:43:50;100392.53;;;1.84;79.90
67029;BME280;53934;52.142;11.738;2022-12-10T03:46:16;100395.44;;;1.68;80.13
67029;BME280;53934;52.142;11.738;2022-12-10T03:48:43;100394.28;;;1.82;79.75
67029;BME280;53934;52.142;11.738;2022-12-10T03:51:11;100391.69;;;1.82;79.89
67029;BME280;53934;52.142;11.738;2022-12-10T03:53:37;100401.53;;;2.04;79.42
67029;BME280;53934;52.142;11.738;2022-12-10T03:56:04;100404.44;;;1.90;79.35
67029;BME280;53934;52.142;11.738;2022-12-10T03:58:30;100403.47;;;1.95;79.02
67029;BME280;53934;52.142;11.738;2022-12-10T04:00:57;100395.91;;;1.86;78.83
67029;BME280;53934;52.142;11.738;2022-12-10T04:03:23;100400.66;;;2.05;78.49
67029;BME280;53934;52.142;11.738;2022-12-10T04:05:50;100402.13;;;2.16;77.90
67029;BME280;53934;52.142;11.738;2022-12-10T04:08:18;100408.97;;;2.19;77.81
67029;BME280;53934;52.142;11.738;2022-12-10T04:10:44;100410.59;;;2.23;77.85
67029;BME280;53934;52.142;11.738;2022-12-10T04:13:11;100415.91;;;2.17;77.89
67029;BME280;53934;52.142;11.738;2022-12-10T04:15:56;100403.59;;;1.89;79.02
67029;BME280;53934;52.142;11.738;2022-12-10T04:18:39;100418.06;;;1.57;80.61
67029;BME280;53934;52.142;11.738;2022-12-10T04:21:06;100411.78;;;1.70;80.61
67029;BME280;53934;52.142;11.738;2022-12-10T04:23:51;100408.75;;;1.89;80.08
67029;BME280;53934;52.142;11.738;2022-12-10T04:26:35;100410.31;;;1.96;79.51
67029;BME280;53934;52.142;11.738;2022-12-10T04:29:21;100407.50;;;2.07;79.48
67029;BME280;53934;52.142;11.738;2022-12-10T04:31:48;100405.56;;;2.17;78.60
67029;BME280;53934;52.142;11.738;2022-12-10T04:34:15;100407.56;;;2.06;79.07
67029;BME280;53934;52.142;11.738;2022-12-10T04:36:42;100417.47;;;2.24;78.78
67029;BME280;53934;52.142;11.738;2022-12-10T04:39:10;100412.94;;;2.33;78.31
67029;BME280;53934;52.142;11.738;2022-12-10T04:41:37;100408.63;;;2.34;77.95
67029;BME280;53934;52.142;11.738;2022-12-10T04:44:05;100411.13;;;2.37;77.88
67029;BME280;53934;52.142;11.738;2022-12-10T04:46:31;100410.69;;;2.18;78.46
67029;BME280;53934;52.142;11.738;2022-12-10T04:48:58;100412.50;;;2.15;78.51
67029;BME280;53934;52.142;11.738;2022-12-10T04:51:24;100412.22;;;2.28;78.01
67029;BME280;53934;52.142;11.738;2022-12-10T04:53:51;100411.31;;;2.29;78.30
67029;BME280;53934;52.142;11.738;2022-12-10T04:56:19;100404.41;;;2.30;78.45
67029;BME280;53934;52.142;11.738;2022-12-10T04:58:46;100407.84;;;2.30;78.42
67029;BME280;53934;52.142;11.738;2022-12-10T05:01:12;100401.00;;;2.28;78.85
67029;BME280;53934;52.142;11.738;2022-12-10T05:03:39;100398.50;;;2.25;78.76
67029;BME280;53934;52.142;11.738;2022-12-10T05:06:07;100398.44;;;2.26;79.25
67029;BME280;53934;52.142;11.738;2022-12-10T05:08:34;100404.38;;;2.31;78.72
67029;BME280;53934;52.142;11.738;2022-12-10T05:11:02;100405.44;;;2.23;79.19
67029;BME280;53934;52.142;11.738;2022-12-10T05:13:30;100400.13;;;2.29;78.98
67029;BME280;53934;52.142;11.738;2022-12-10T05:15:57;100409.25;;;2.07;80.14
67029;BME280;53934;52.142;11.738;2022-12-10T05:18:23;100400.94;;;2.29;79.26
67029;BME280;53934;52.142;11.738;2022-12-10T05:20:50;100413.88;;;2.29;79.08
67029;BME280;53934;52.142;11.738;2022-12-10T05:23:17;100404.88;;;2.10;79.71
67029;BME280;53934;52.142;11.738;2022-12-10T05:26:00;100413.06;;;1.90;80.88
67029;BME280;53934;52.142;11.738;2022-12-10T05:28:30;100417.47;;;1.85;81.23
67029;BME280;53934;52.142;11.738;2022-12-10T05:30:57;100410.94;;;2.08;80.53
67029;BME280;53934;52.142;11.738;2022-12-10T05:33:24;100406.00;;;1.97;80.89
67029;BME280;53934;52.142;11.738;2022-12-10T05:35:52;100410.06;;;2.09;80.68
67029;BME280;53934;52.142;11.738;2022-12-10T05:38:19;100408.34;;;2.09;80.51
67029;BME280;53934;52.142;11.738;2022-12-10T05:40:45;100412.91;;;1.96;80.99
67029;BME280;53934;52.142;11.738;2022-12-10T05:43:12;100411.63;;;1.77;81.51
67029;BME280;53934;52.142;11.738;2022-12-10T05:45:40;100402.94;;;1.80;82.15
67029;BME280;53934;52.142;11.738;2022-12-10T05:48:08;100419.09;;;1.89;81.47
67029;BME280;53934;52.142;11.738;2022-12-10T05:50:35;100419.03;;;2.31;80.11
67029;BME280;53934;52.142;11.738;2022-12-10T05:53:02;100420.75;;;2.32;79.48
67029;BME280;53934;52.142;11.738;2022-12-10T05:55:29;100417.22;;;2.36;79.40
67029;BME280;53934;52.142;11.738;2022-12-10T05:57:58;100419.56;;;2.45;79.07
67029;BME280;53934;52.142;11.738;2022-12-10T06:00:25;100420.44;;;2.44;79.18
67029;BME280;53934;52.142;11.738;2022-12-10T06:02:54;100419.56;;;2.45;79.04
67029;BME280;53934;52.142;11.738;2022-12-10T06:05:20;100421.47;;;2.37;79.35
67029;BME280;53934;52.142;11.738;2022-12-10T06:07:47;100423.03;;;2.44;78.86
67029;BME280;53934;52.142;11.738;2022-12-10T06:10:13;100425.09;;;1.91;80.38
67029;BME280;53934;52.142;11.738;2022-12-10T06:12:40;100434.28;;;2.05;80.68
67029;BME280;53934;52.142;11.738;2022-12-10T06:15:07;100429.81;;;2.13;80.45
67029;BME280;53934;52.142;11.738;2022-12-10T06:17:33;100428.09;;;2.12;80.24
67029;BME280;53934;52.142;11.738;2022-12-10T06:20:03;100426.28;;;2.17;79.93
67029;BME280;53934;52.142;11.738;2022-12-10T06:22:29;100437.91;;;2.36;79.52
67029;BME280;53934;52.142;11.738;2022-12-10T06:24:56;100437.81;;;2.39;79.15
67029;BME280;53934;52.142;11.738;2022-12-10T06:27:22;100437.91;;;2.36;79.27
67029;BME280;53934;52.142;11.738;2022-12-10T06:29:49;100436.19;;;2.35;79.01
67029;BME280;53934;52.142;11.738;2022-12-10T06:32:15;100440.25;;;2.45;78.91
67029;BME280;53934;52.142;11.738;2022-12-10T06:34:42;100438.88;;;2.30;79.18
67029;BME280;53934;52.142;11.738;2022-12-10T06:37:09;100436.63;;;2.17;79.51
67029;BME280;53934;52.142;11.738;2022-12-10T06:39:36;100439.75;;;2.31;79.09
67029;BME280;53934;52.142;11.738;2022-12-10T06:42:03;100440.25;;;2.47;78.58
67029;BME280;53934;52.142;11.738;2022-12-10T06:44:30;100449.84;;;2.41;78.11
67029;BME280;53934;52.142;11.738;2022-12-10T06:46:57;100443.97;;;2.33;77.94
67029;BME280;53934;52.142;11.738;2022-12-10T06:49:23;100444.38;;;2.17;79.24
67029;BME280;53934;52.142;11.738;2022-12-10T06:51:50;100444.81;;;2.35;78.56
67029;BME280;53934;52.142;11.738;2022-12-10T06:54:18;100456.03;;;2.34;78.48
67029;BME280;53934;52.142;11.738;2022-12-10T06:56:44;100448.19;;;2.39;78.06
67029;BME280;53934;52.142;11.738;2022-12-10T06:59:10;100461.38;;;2.28;78.99
67029;BME280;53934;52.142;11.738;2022-12-10T07:01:37;100460.69;;;2.19;78.61
67029;BME280;53934;52.142;11.738;2022-12-10T07:04:05;100462.16;;;2.30;78.68
67029;BME280;53934;52.142;11.738;2022-12-10T07:06:32;100451.50;;;2.44;78.41
67029;BME280;53934;52.142;11.738;2022-12-10T07:08:58;100458.19;;;2.54;78.16
67029;BME280;53934;52.142;11.738;2022-12-10T07:11:26;100465.34;;;2.43;78.57
67029;BME280;53934;52.142;11.738;2022-12-10T07:13:53;100463.44;;;2.51;78.10
67029;BME280;53934;52.142;11.738;2022-12-10T07:16:21;100465.72;;;2.63;77.91
67029;BME280;53934;52.142;11.738;2022-12-10T07:18:49;100464.66;;;2.72;77.54
67029;BME280;53934;52.142;11.738;2022-12-10T07:21:17;100462.09;;;2.70;77.53
67029;BME280;53934;52.142;11.738;2022-12-10T07:23:44;100468.00;;;2.77;77.29
67029;BME280;53934;52.142;11.738;2022-12-10T07:26:11;100471.31;;;2.82;77.25
67029;BME280;53934;52.142;11.738;2022-12-10T07:28:39;100471.97;;;2.90;76.52
67029;BME280;53934;52.142;11.738;2022-12-10T07:31:07;100474.63;;;2.87;76.58
67029;BME280;53934;52.142;11.738;2022-12-10T07:33:34;100476.44;;;2.83;76.23
67029;BME280;53934;52.142;11.738;2022-12-10T07:36:03;100470.59;;;2.75;76.68
67029;BME280;53934;52.142;11.738;2022-12-10T07:38:30;100482.78;;;2.72;76.65
67029;BME280;53934;52.142;11.738;2022-12-10T07:40:56;100491.34;;;2.74;76.25
67029;BME280;53934;52.142;11.738;2022-12-10T07:43:23;100485.63;;;2.60;76.43
67029;BME280;53934;52.142;11.738;2022-12-10T07:45:50;100492.88;;;2.45;76.68
67029;BME280;53934;52.142;11.738;2022-12-10T07:48:17;100487.44;;;2.58;77.00
67029;BME280;53934;52.142;11.738;2022-12-10T07:50:43;100484.84;;;2.58;76.59
67029;BME280;53934;52.142;11.738;2022-12-10T07:53:10;100486.28;;;2.69;76.13
67029;BME280;53934;52.142;11.738;2022-12-10T07:55:36;100484.78;;;2.59;76.19
67029;BME280;53934;52.142;11.738;2022-12-10T07:58:03;100494.41;;;2.54;76.73
67029;BME280;53934;52.142;11.738;2022-12-10T08:00:29;100492.69;;;2.55;76.74
67029;BME280;53934;52.142;11.738;2022-12-10T08:02:57;100491.59;;;2.63;76.19
67029;BME280;53934;52.142;11.738;2022-12-10T08:05:24;100495.13;;;2.59;76.51
67029;BME280;53934;52.142;11.738;2022-12-10T08:07:50;100491.41;;;2.71;75.88
67029;BME280;53934;52.142;11.738;2022-12-10T08:10:17;100493.88;;;2.77;75.59
67029;BME280;53934;52.142;11.738;2022-12-10T08:12:44;100493.31;;;2.63;76.16
67029;BME280;53934;52.142;11.738;2022-12-10T08:15:10;100496.78;;;2.63;76.33
67029;BME280;53934;52.142;11.738;2022-12-10T08:17:37;100496.91;;;2.59;76.92
67029;BME280;53934;52.142;11.738;2022-12-10T08:20:06;100501.25;;;2.55;76.81
67029;BME280;53934;52.142;11.738;2022-12-10T08:22:33;100495.78;;;2.32;77.37
67029;BME280;53934;52.142;11.738;2022-12-10T08:25:00;100494.88;;;2.33;77.30
67029;BME280;53934;52.142;11.738;2022-12-10T08:27:27;100503.19;;;2.47;76.67
67029;BME280;53934;52.142;11.738;2022-12-10T08:29:53;100502.50;;;2.39;76.62
67029;BME280;53934;52.142;11.738;2022-12-10T08:32:20;100508.38;;;2.47;76.79
67029;BME280;53934;52.142;11.738;2022-12-10T08:34:46;100499.44;;;2.60;76.44
67029;BME280;53934;52.142;11.738;2022-12-10T08:37:15;100503.91;;;2.54;76.37
67029;BME280;53934;52.142;11.738;2022-12-10T08:39:42;100508.03;;;2.62;76.08
67029;BME280;53934;52.142;11.738;2022-12-10T08:42:08;100510.91;;;2.49;76.55
67029;BME280;53934;52.142;11.738;2022-12-10T08:44:35;100511.16;;;2.38;76.75
67029;BME280;53934;52.142;11.738;2022-12-10T08:47:01;100514.13;;;2.20;76.96
67029;BME280;53934;52.142;11.738;2022-12-10T08:49:28;100514.75;;;2.31;77.05
67029;BME280;53934;52.142;11.738;2022-12-10T08:51:54;100515.66;;;2.67;76.96
67029;BME280;53934;52.142;11.738;2022-12-10T08:54:22;100512.06;;;2.74;77.05
67029;BME280;53934;52.142;11.738;2022-12-10T08:56:49;100521.88;;;2.60;76.52
67029;BME280;53934;52.142;11.738;2022-12-10T08:59:16;100513.84;;;2.70;75.87
67029;BME280;53934;52.142;11.738;2022-12-10T09:01:42;100519.53;;;2.49;76.30
67029;BME280;53934;52.142;11.738;2022-12-10T09:04:09;100527.28;;;2.49;76.35
67029;BME280;53934;52.142;11.738;2022-12-10T09:06:35;100529.81;;;2.52;75.93
67029;BME280;53934;52.142;11.738;2022-12-10T09:09:02;100528.75;;;2.62;75.53
67029;BME280;53934;52.142;11.738;2022-12-10T09:11:32;100533.94;;;2.61;75.67
67029;BME280;53934;52.142;11.738;2022-12-10T09:13:59;100530.34;;;2.66;75.77
67029;BME280;53934;52.142;11.738;2022-12-10T09:16:29;100535.16;;;2.44;76.78
67029;BME280;53934;52.142;11.738;2022-12-10T09:18:56;100532.63;;;2.43;76.88
67029;BME280;53934;52.142;11.738;2022-12-10T09:21:23;100527.44;;;2.43;76.71
67029;BME280;53934;52.142;11.738;2022-12-10T09:23:50;100531.16;;;2.30;77.27
67029;BME280;53934;52.142;11.738;2022-12-10T09:26:17;100537.66;;;2.49;76.86
67029;BME280;53934;52.142;11.738;2022-12-10T09:28:46;100531.59;;;2.50;76.81
67029;BME280;53934;52.142;11.738;2022-12-10T09:31:14;100529.09;;;2.45;76.92
67029;BME280;53934;52.142;11.738;2022-12-10T09:33:41;100540.56;;;2.34;77.18
67029;BME280;53934;52.142;11.738;2022-12-10T09:36:09;100535.13;;;2.46;76.71
67029;BME280;53934;52.142;11.738;2022-12-10T09:38:39;100536.22;;;2.36;77.30
67029;BME280;53934;52.142;11.738;2022-12-10T09:41:19;100539.72;;;2.33;77.43
67029;BME280;53934;52.142;11.738;2022-12-10T09:43:59;100544.69;;;2.03;78.63
67029;BME280;53934;52.142;11.738;2022-12-10T09:46:44;100537.13;;;2.33;77.79
67029;BME280;53934;52.142;11.738;2022-12-10T09:49:20;100531.91;;;2.36;77.16
67029;BME280;53934;52.142;11.738;2022-12-10T09:51:48;100531.59;;;2.50;76.73
67029;BME280;53934;52.142;11.738;2022-12-10T09:54:19;100539.25;;;2.55;77.01
67029;BME280;53934;52.142;11.738;2022-12-10T09:56:50;100536.25;;;2.33;77.17
67029;BME280;53934;52.142;11.738;2022-12-10T09:59:23;100533.56;;;2.39;77.02
67029;BME280;53934;52.142;11.738;2022-12-10T10:02:01;100529.00;;;2.50;76.79
67029;BME280;53934;52.142;11.738;2022-12-10T10:04:28;100534.97;;;2.54;76.96
67029;BME280;53934;52.142;11.738;2022-12-10T10:06:55;100534.66;;;2.67;77.89
67029;BME280;53934;52.142;11.738;2022-12-10T10:09:22;100530.56;;;2.57;76.94
67029;BME280;53934;52.142;11.738;2022-12-10T10:11:49;100529.88;;;2.49;76.46
67029;BME280;53934;52.142;11.738;2022-12-10T10:14:22;100526.72;;;2.36;76.84
67029;BME280;53934;52.142;11.738;2022-12-10T10:16:54;100530.59;;;2.17;77.79
67029;BME280;53934;52.142;11.738;2022-12-10T10:19:28;100521.19;;;2.12;78.19
67029;BME280;53934;52.142;11.738;2022-12-10T10:21:55;100528.56;;;2.31;77.65
67029;BME280;53934;52.142;11.738;2022-12-10T10:24:34;100525.56;;;2.10;77.83
67029;BME280;53934;52.142;11.738;2022-12-10T10:27:11;100523.28;;;2.36;77.35
67029;BME280;53934;52.142;11.738;2022-12-10T10:29:40;100521.00;;;2.61;77.10
67029;BME280;53934;52.142;11.738;2022-12-10T10:32:15;100522.56;;;2.68;75.62
67029;BME280;53934;52.142;11.738;2022-12-10T10:34:43;100533.00;;;2.65;75.61
67029;BME280;53934;52.142;11.738;2022-12-10T10:37:15;100524.28;;;2.69;74.60
67029;BME280;53934;52.142;11.738;2022-12-10T10:39:46;100519.78;;;2.75;74.33
67029;BME280;53934;52.142;11.738;2022-12-10T10:42:34;100516.78;;;2.92;74.68
67029;BME280;53934;52.142;11.738;2022-12-10T10:45:05;100523.56;;;2.99;74.16
67029;BME280;53934;52.142;11.738;2022-12-10T10:47:34;100518.41;;;2.96;74.07
67029;BME280;53934;52.142;11.738;2022-12-10T10:50:04;100518.25;;;3.04;73.87
67029;BME280;53934;52.142;11.738;2022-12-10T10:52:36;100523.88;;;2.85;74.45
67029;BME280;53934;52.142;11.738;2022-12-10T10:55:04;100520.69;;;3.10;74.21
67029;BME280;53934;52.142;11.738;2022-12-10T10:57:34;100517.28;;;3.08;73.94
67029;BME280;53934;52.142;11.738;2022-12-10T11:00:06;100520.78;;;3.07;73.79
67029;BME280;53934;52.142;11.738;2022-12-10T11:02:35;100517.31;;;2.71;74.13
67029;BME280;53934;52.142;11.738;2022-12-10T11:05:05;100518.88;;;2.78;75.08
67029;BME280;53934;52.142;11.738;2022-12-10T11:07:34;100521.34;;;2.45;75.14
67029;BME280;53934;52.142;11.738;2022-12-10T11:10:03;100519.38;;;2.57;75.35
67029;BME280;53934;52.142;11.738;2022-12-10T11:12:35;100525.16;;;2.66;74.36
67029;BME280;53934;52.142;11.738;2022-12-10T11:15:28;100522.91;;;2.89;74.39
67029;BME280;53934;52.142;11.738;2022-12-10T11:17:55;100519.53;;;2.86;73.53
67029;BME280;53934;52.142;11.738;2022-12-10T11:20:24;100514.16;;;2.95;74.28
67029;BME280;53934;52.142;11.738;2022-12-10T11:22:52;100521.03;;;2.59;74.47
67029;BME280;53934;52.142;11.738;2022-12-10T11:25:28;100519.47;;;2.52;75.27
67029;BME280;53934;52.142;11.738;2022-12-10T11:28:00;100517.22;;;2.74;74.73
67029;BME280;53934;52.142;11.738;2022-12-10T11:30:32;100523.78;;;2.88;74.55
67029;BME280;53934;52.142;11.738;2022-12-10T11:33:14;100515.00;;;2.96;73.94
67029;BME280;53934;52.142;11.738;2022-12-10T11:35:50;100518.41;;;2.98;73.73
67029;BME280;53934;52.142;11.738;2022-12-10T11:38:24;100517.38;;;3.03;73.19
67029;BME280;53934;52.142;11.738;2022-12-10T11:41:01;100516.47;;;3.06;72.87
67029;BME280;53934;52.142;11.738;2022-12-10T11:43:47;100509.13;;;3.23;72.60
67029;BME280;53934;52.142;11.738;2022-12-10T11:46:35;100504.69;;;3.28;72.40
67029;BME280;53934;52.142;11.738;2022-12-10T11:49:16;100513.63;;;3.49;71.93
67029;BME280;53934;52.142;11.738;2022-12-10T11:51:51;100515.09;;;3.59;71.18
67029;BME280;53934;52.142;11.738;2022-12-10T11:54:34;100514.19;;;3.27;71.55
67029;BME280;53934;52.142;11.738;2022-12-10T11:57:09;100510.41;;;3.07;72.11
67029;BME280;53934;52.142;11.738;2022-12-10T11:59:44;100515.28;;;3.19;73.07
67029;BME280;53934;52.142;11.738;2022-12-10T12:02:30;100515.84;;;3.30;72.40
67029;BME280;53934;52.142;11.738;2022-12-10T12:05:14;100510.16;;;3.16;71.81
67029;BME280;53934;52.142;11.738;2022-12-10T12:07:52;100510.00;;;3.22;71.62
67029;BME280;53934;52.142;11.738;2022-12-10T12:10:43;100516.28;;;3.13;71.21
67029;BME280;53934;52.142;11.738;2022-12-10T12:13:14;100510.84;;;3.24;71.14
67029;BME280;53934;52.142;11.738;2022-12-10T12:15:44;100524.13;;;3.44;70.99
67029;BME280;53934;52.142;11.738;2022-12-10T12:18:18;100519.19;;;3.35;71.25
67029;BME280;53934;52.142;11.738;2022-12-10T12:20:50;100521.47;;;3.47;70.52
67029;BME280;53934;52.142;11.738;2022-12-10T12:23:21;100523.88;;;3.53;69.87
67029;BME280;53934;52.142;11.738;2022-12-10T12:25:54;100527.22;;;3.58;70.03
67029;BME280;53934;52.142;11.738;2022-12-10T12:28:25;100526.31;;;3.59;70.01
67029;BME280;53934;52.142;11.738;2022-12-10T12:31:01;100533.19;;;3.60;70.21
67029;BME280;53934;52.142;11.738;2022-12-10T12:33:39;100519.94;;;3.71;69.81
67029;BME280;53934;52.142;11.738;2022-12-10T12:36:10;100526.47;;;3.85;69.39
67029;BME280;53934;52.142;11.738;2022-12-10T12:38:45;100527.94;;;3.94;69.10
67029;BME280;53934;52.142;11.738;2022-12-10T12:41:15;100513.19;;;3.65;69.82
67029;BME280;53934;52.142;11.738;2022-12-10T12:43:47;100512.50;;;3.59;70.17
67029;BME280;53934;52.142;11.738;2022-12-10T12:46:19;100519.97;;;3.37;71.02
67029;BME280;53934;52.142;11.738;2022-12-10T12:48:53;100514.31;;;3.55;71.38
67029;BME280;53934;52.142;11.738;2022-12-10T12:51:27;100516.44;;;3.41;70.78
67029;BME280;53934;52.142;11.738;2022-12-10T12:53:55;100514.59;;;3.44;71.18
67029;BME280;53934;52.142;11.738;2022-12-10T12:56:31;100509.88;;;3.28;70.65
67029;BME280;53934;52.142;11.738;2022-12-10T12:59:11;100509.34;;;3.48;70.63
67029;BME280;53934;52.142;11.738;2022-12-10T13:01:43;100514.66;;;3.43;70.84
67029;BME280;53934;52.142;11.738;2022-12-10T13:04:14;100511.31;;;3.38;70.42